• Join FlightAware (Why Join?)
  • Login
  • US Flag 
05:51AM EDT


 

Airport Tracker/Info


-or-


 

Live Flight TrackerFlight Track Log ✈ DAL6034 ✈ 26-Apr-2013 ✈ KMHT - KLGA

Flight Track Log - Related Links

Times and Time Zones

All times are in EDT time to prevent confusion due to time zone crossing. See the DAL6034 flight status page for this flight to view local times or setup timezone preferences in your user account.

Time Position Orientation Groundspeed Altitude Reporting Facility
EDT Latitude Longitude Course Direction KTS MPH feet Rate Location/Type
05:27PM 42.9000 -71.4333 180° South 170 196 1,700  Level KA90
05:28PM 42.8819 -71.4908 247° West 157 181 4,100 2,520 Climbing Boston Center
05:29PM 42.9200 -71.5469 313° West 180 207 6,800 2,700 Climbing Boston Center
05:30PM 42.7185 -71.6882 228° Southwest  Level Estimated
05:30PM 42.9683 -71.6144 314° West 223 257 9,500  Level Boston Center
05:31PM 42.6470 -71.7720 236° Southwest  Level Estimated
05:31PM 43.0044 -71.6878 304° West 254 292 10,400  Level Boston Center
05:32PM 42.5754 -71.8556 231° Southwest  Level Estimated
05:32PM 43.0114 -71.7983 275° West 265 305 13,100  Level Boston Center
05:33PM 42.5037 -71.9389 232° Southwest  Level Estimated
05:33PM 43.0139 -71.8950 272° West 278 320 14,800  Level Boston Center
05:34PM 43.0186 -72.0197 273° West 291 335 16,700 1,560 Climbing Boston Center
05:35PM 43.0106 -72.1192 264° West 296 341 18,000 1,560 Climbing Boston Center
05:36PM 42.9336 -72.1933 215° Southwest 287 330 19,900 960 Climbing Boston Center
05:37PM 42.8628 -72.2419 207° Southwest 361 415 20,000  Climbing Boston Center
05:38PM 42.7589 -72.3186 208° Southwest 352 405 20,000  Level Boston Center
05:39PM 42.6589 -72.3864 206° Southwest 378 435 20,000 -420 Level Boston Center
05:40PM 42.5775 -72.4344 204° Southwest 388 447 19,200 -960 Descending Boston Center
05:41PM 42.4711 -72.5106 208° Southwest 394 453 18,100 -600 Descending Boston Center
05:42PM 42.3775 -72.5722 206° Southwest 389 448 18,000 -60 Descending Boston Center
05:43PM 42.2794 -72.6394 207° Southwest 369 425 18,000  Level Boston Center
05:44PM 42.1856 -72.7006 206° Southwest 369 425 18,000  Level Boston Center
05:45PM 42.1247 -72.8039 232° Southwest 354 407 18,100 -420 Climbing Boston Center
05:46PM 42.0722 -72.9183 238° Southwest 361 415 17,200 -960 Descending Boston Center
05:47PM 42.0236 -73.0353 241° Southwest 366 421 16,200 -600 Descending Boston Center
05:48PM 41.9772 -73.1356 238° Southwest 356 410 16,000 -120 Descending Boston Center
05:49PM 41.9392 -73.2244 240° Southwest 350 403 16,000  Level Boston Center
05:50PM 41.8736 -73.3628 238° Southwest 350 403 16,000  Level Boston Center
05:51PM 41.8125 -73.4261 218° Southwest 350 403 16,000  Level Boston Center
05:52PM 41.7181 -73.5025 211° Southwest 350 403 16,000 -600 Level Boston Center
05:53PM 41.6736 -73.5769 231° Southwest 301 346 14,800 -1,560 Descending Boston Center
05:55PM 41.6167 -73.6833 234° Southwest 290 334 12,700 -1,800 Descending New York TRACON
05:56PM 41.5667 -73.7667 231° Southwest 280 322 11,000 -1,620 Descending New York TRACON
05:57PM 41.5000 -73.7833 191° South 284 327 9,500 -1,020 Descending New York TRACON
05:58PM 41.4167 -73.8000 189° South 279 321 9,000 -240 Descending New York TRACON
05:59PM 41.3333 -73.7667 163° South 283 326 9,100 -480 Climbing New York TRACON
06:00PM 41.2667 -73.7167 151° Southeast 287 330 8,100 -600 Descending New York TRACON
06:01PM 41.2000 -73.6667 151° Southeast 273 314 8,000 -720 Descending New York TRACON
06:02PM 41.1500 -73.6167 143° Southeast 273 314 6,700 -1,500 Descending New York TRACON
06:03PM 41.0667 -73.6167 180° South 270 311 5,100 -1,380 Descending New York TRACON
06:04PM 41.0000 -73.6167 180° South 256 295 4,000 -600 Descending New York TRACON
06:05PM 40.9333 -73.6167 180° South 265 305 4,000  Level New York TRACON
06:06PM 40.8667 -73.6500 201° Southwest 252 290 4,000  Level New York TRACON
06:07PM 40.8167 -73.7167 225° Southwest 256 295 4,100  Climbing New York TRACON
06:08PM 40.8000 -73.8000 255° West 250 288 4,000 -60 Descending New York TRACON
06:09PM 40.7833 -73.8833 255° West 209 241 4,000  Level New York TRACON
06:10PM 40.7667 -73.9500 252° West 188 216 4,000 -300 Level New York TRACON
06:11PM 40.7500 -74.0000 246° West 198 228 3,400 -540 Descending New York TRACON
06:12PM 40.7000 -74.0167 194° South 202 232 3,000 -420 Descending New York TRACON